RJNG(METAR)
10/20 06:00
METAR RJNG 192100Z 28003KT 9999 -RA FEW004 SCT025 BKN045 15/15 Q1015
RMK 2ST004 3SC025 6SC045 A2999 16/15 R006=
戻る
トップページへ戻る
IMOC Co,.Ltd.